TOM47A EGPH-LECH
Flight info
| Callsign | TOM47A |
|---|---|
| Flight time | N/A |
| Altitude | 35000 |
| Route | TLA DCT MONTY/N0450F340 DCT AXCIS DCT PEPZE/N0451F350 DCT EMWIP DCT SKERY DCT SKESO DCT KORER UN26 UVUDO UN862 UTISO DCT LULUT DCT PERDU N862 MLA N860 RIMES |
| Aircraft | B38M/M-SADE2E3GIJ4J7RWZ/LB1D1 |
Departure
| Time | 2026-04-23 17:57 |
|---|---|
| Airport | Edinburgh Airport (EGPH) |
Arrival
| Time | N/A |
|---|---|
| Airport | Castellón-Costa Azahar Airport (LECH) |
| Time | Latitude | Longitude | Altitude | Speed | Heading |
|---|---|---|---|---|---|
| 2026-04-23 17:05 | 55.94659 | -3.36615 | 109 ft | 0 kts | 89° |
| 2026-04-23 17:47 | 55.94659 | -3.36632 | 108 ft | 2 kts | 87° |
| 2026-04-23 17:47 | 55.94658 | -3.36658 | 108 ft | 2 kts | 90° |
| 2026-04-23 17:47 | 55.94657 | -3.36702 | 108 ft | 2 kts | 68° |
| 2026-04-23 17:48 | 55.94648 | -3.36724 | 108 ft | 2 kts | 37° |
| 2026-04-23 17:48 | 55.94635 | -3.36735 | 109 ft | 1 kts | 7° |
| 2026-04-23 17:48 | 55.94629 | -3.36735 | 109 ft | 1 kts | 355° |
| 2026-04-23 17:48 | 55.94625 | -3.36735 | 109 ft | 0 kts | 359° |
| 2026-04-23 17:51 | 55.94629 | -3.36735 | 109 ft | 2 kts | 1° |
| 2026-04-23 17:51 | 55.94745 | -3.36740 | 106 ft | 11 kts | 343° |
| 2026-04-23 17:52 | 55.94808 | -3.36775 | 105 ft | 7 kts | 358° |
| 2026-04-23 17:52 | 55.94918 | -3.36833 | 103 ft | 9 kts | 304° |
| 2026-04-23 17:52 | 55.94908 | -3.36949 | 103 ft | 10 kts | 240° |
| 2026-04-23 17:53 | 55.94825 | -3.37195 | 104 ft | 13 kts | 239° |
| 2026-04-23 17:53 | 55.94768 | -3.37360 | 102 ft | 17 kts | 238° |
| 2026-04-23 17:53 | 55.94701 | -3.37561 | 104 ft | 19 kts | 238° |
| 2026-04-23 17:54 | 55.94628 | -3.37777 | 106 ft | 21 kts | 239° |
| 2026-04-23 17:54 | 55.94550 | -3.38008 | 109 ft | 22 kts | 239° |
| 2026-04-23 17:54 | 55.94401 | -3.38445 | 114 ft | 17 kts | 239° |
| 2026-04-23 17:55 | 55.94311 | -3.38712 | 118 ft | 8 kts | 239° |
| 2026-04-23 17:55 | 55.94285 | -3.38804 | 118 ft | 8 kts | 262° |
| 2026-04-23 17:55 | 55.94313 | -3.38885 | 118 ft | 9 kts | 329° |
| 2026-04-23 17:56 | 55.94375 | -3.38951 | 117 ft | 10 kts | 335° |
| 2026-04-23 17:56 | 55.94524 | -3.38648 | 110 ft | 55 kts | 59° |
| 2026-04-23 17:56 | 55.94846 | -3.37698 | 102 ft | 120 kts | 58° |
| 2026-04-23 17:57 | 55.95358 | -3.36186 | 186 ft | 160 kts | 59° |
| 2026-04-23 17:57 | 55.95919 | -3.34496 | 733 ft | 163 kts | 59° |
| 2026-04-23 17:57 | 55.97406 | -3.31608 | 1919 ft | 164 kts | 38° |
| 2026-04-23 17:58 | 55.98366 | -3.30241 | 2147 ft | 185 kts | 39° |
| 2026-04-23 17:58 | 55.99387 | -3.28694 | 2513 ft | 200 kts | 40° |
| 2026-04-23 17:58 | 56.00468 | -3.26981 | 2832 ft | 222 kts | 41° |
| 2026-04-23 17:58 | 56.01684 | -3.25047 | 3203 ft | 241 kts | 40° |
| 2026-04-23 17:59 | 56.02953 | -3.23048 | 3819 ft | 249 kts | 40° |
| 2026-04-23 17:59 | 56.04263 | -3.20996 | 4507 ft | 253 kts | 40° |
| 2026-04-23 17:59 | 56.05338 | -3.18509 | 5113 ft | 263 kts | 68° |
| 2026-04-23 17:59 | 56.05489 | -3.15273 | 5762 ft | 273 kts | 98° |
| 2026-04-23 18:00 | 56.04897 | -3.11941 | 5978 ft | 286 kts | 115° |
| 2026-04-23 18:00 | 56.03769 | -3.09059 | 5966 ft | 281 kts | 130° |
| 2026-04-23 18:00 | 56.02444 | -3.06557 | 5980 ft | 281 kts | 135° |
| 2026-04-23 18:00 | 56.00980 | -3.04214 | 5975 ft | 283 kts | 139° |
| 2026-04-23 18:01 | 55.99493 | -3.01961 | 5979 ft | 272 kts | 140° |
| 2026-04-23 18:01 | 55.98115 | -2.99811 | 5959 ft | 256 kts | 141° |
| 2026-04-23 18:01 | 55.96589 | -2.98392 | 5981 ft | 250 kts | 172° |
| 2026-04-23 18:01 | 55.94879 | -2.98904 | 6609 ft | 254 kts | 202° |
| 2026-04-23 18:02 | 55.93858 | -2.99849 | 7064 ft | 256 kts | 213° |
| 2026-04-23 18:02 | 55.91647 | -3.01848 | 7522 ft | 277 kts | 207° |
| 2026-04-23 18:02 | 55.89882 | -3.03252 | 8154 ft | 278 kts | 208° |
| 2026-04-23 18:02 | 55.88113 | -3.04704 | 8788 ft | 279 kts | 209° |
| 2026-04-23 18:03 | 55.86385 | -3.06154 | 9455 ft | 278 kts | 209° |
| 2026-04-23 18:03 | 55.84639 | -3.07622 | 10103 ft | 278 kts | 209° |
| 2026-04-23 18:03 | 55.82883 | -3.09096 | 10706 ft | 280 kts | 209° |
| 2026-04-23 18:03 | 55.81076 | -3.10617 | 10800 ft | 300 kts | 208° |
| 2026-04-23 18:04 | 55.79121 | -3.12229 | 10881 ft | 319 kts | 207° |
| 2026-04-23 18:04 | 55.77081 | -3.13863 | 11355 ft | 324 kts | 207° |
| 2026-04-23 18:04 | 55.75013 | -3.15498 | 11874 ft | 327 kts | 207° |
| 2026-04-23 18:04 | 55.72943 | -3.17136 | 12478 ft | 327 kts | 207° |
| 2026-04-23 18:05 | 55.70871 | -3.18777 | 13000 ft | 328 kts | 207° |
| 2026-04-23 18:05 | 55.68809 | -3.20411 | 13518 ft | 330 kts | 207° |
| 2026-04-23 18:05 | 55.66702 | -3.22072 | 14030 ft | 331 kts | 207° |
| 2026-04-23 18:05 | 55.64617 | -3.23715 | 14525 ft | 333 kts | 207° |
| 2026-04-23 18:06 | 55.62488 | -3.25394 | 15018 ft | 334 kts | 208° |
| 2026-04-23 18:06 | 55.60393 | -3.27048 | 15482 ft | 336 kts | 208° |
| 2026-04-23 18:06 | 55.58258 | -3.28732 | 15956 ft | 337 kts | 208° |
| 2026-04-23 18:06 | 55.56119 | -3.30417 | 16415 ft | 338 kts | 208° |
| 2026-04-23 18:07 | 55.53983 | -3.32100 | 16844 ft | 340 kts | 208° |
| 2026-04-23 18:07 | 55.51787 | -3.33629 | 17284 ft | 344 kts | 202° |
| 2026-04-23 18:07 | 55.49414 | -3.34642 | 17694 ft | 350 kts | 194° |
| 2026-04-23 18:07 | 55.46962 | -3.35033 | 18113 ft | 356 kts | 187° |
| 2026-04-23 18:08 | 55.45311 | -3.34994 | 18369 ft | 359 kts | 184° |
| 2026-04-23 18:08 | 55.42001 | -3.34752 | 18889 ft | 362 kts | 184° |
| 2026-04-23 18:08 | 55.39457 | -3.34548 | 19242 ft | 364 kts | 184° |
| 2026-04-23 18:08 | 55.36958 | -3.34354 | 19619 ft | 365 kts | 184° |
| 2026-04-23 18:09 | 55.34430 | -3.34165 | 19973 ft | 367 kts | 184° |
| 2026-04-23 18:09 | 55.31881 | -3.33977 | 20311 ft | 369 kts | 185° |
| 2026-04-23 18:09 | 55.29328 | -3.33790 | 20688 ft | 369 kts | 185° |
| 2026-04-23 18:09 | 55.26752 | -3.33603 | 20979 ft | 372 kts | 185° |
| 2026-04-23 18:10 | 55.24164 | -3.33415 | 21338 ft | 373 kts | 185° |
| 2026-04-23 18:10 | 55.21568 | -3.33227 | 21656 ft | 374 kts | 185° |
| 2026-04-23 18:10 | 55.18988 | -3.33041 | 21962 ft | 376 kts | 185° |
| 2026-04-23 18:10 | 55.16376 | -3.32853 | 22274 ft | 377 kts | 185° |
| 2026-04-23 18:11 | 55.13750 | -3.32663 | 22567 ft | 379 kts | 185° |
| 2026-04-23 18:11 | 55.11132 | -3.32476 | 22859 ft | 380 kts | 185° |
| 2026-04-23 18:11 | 55.08517 | -3.32287 | 23169 ft | 381 kts | 186° |
| 2026-04-23 18:11 | 55.05855 | -3.32097 | 23428 ft | 383 kts | 186° |
| 2026-04-23 18:12 | 55.03212 | -3.31907 | 23735 ft | 383 kts | 186° |
| 2026-04-23 18:12 | 55.00544 | -3.31715 | 24082 ft | 382 kts | 186° |
| 2026-04-23 18:12 | 54.97894 | -3.31523 | 24432 ft | 381 kts | 187° |
| 2026-04-23 18:12 | 54.95270 | -3.31335 | 24752 ft | 380 kts | 187° |
| 2026-04-23 18:13 | 54.92660 | -3.31148 | 25086 ft | 379 kts | 187° |
| 2026-04-23 18:13 | 54.90026 | -3.30960 | 25420 ft | 378 kts | 188° |
| 2026-04-23 18:13 | 54.87426 | -3.30775 | 25755 ft | 376 kts | 188° |
| 2026-04-23 18:13 | 54.84816 | -3.30592 | 25948 ft | 379 kts | 188° |
| 2026-04-23 18:14 | 54.82180 | -3.30409 | 26178 ft | 380 kts | 188° |